createdAt,value
2018-07-30T00:01:43.531Z,81.70
2018-07-30T00:04:16.810Z,82.50
2018-07-30T00:06:49.865Z,81.80
2018-07-30T00:09:23.974Z,81.80
2018-07-30T00:11:57.184Z,82.60
2018-07-30T00:14:30.458Z,82.80
2018-07-30T00:17:03.467Z,81.80
2018-07-30T00:19:36.586Z,82.50
2018-07-30T00:22:09.618Z,84.10
2018-07-30T00:24:42.744Z,79.30
2018-07-30T00:27:15.877Z,81.30
2018-07-30T00:29:49.110Z,82.20
2018-07-30T00:32:22.142Z,83.00
2018-07-30T00:34:55.143Z,82.50
2018-07-30T00:37:28.316Z,82.80
2018-07-30T00:40:03.216Z,82.90
2018-07-30T00:42:36.327Z,82.90
2018-07-30T00:45:09.384Z,82.90
2018-07-30T00:47:42.624Z,83.20
2018-07-30T00:50:15.682Z,83.20
2018-07-30T00:52:48.839Z,83.60
2018-07-30T00:55:21.996Z,83.60
2018-07-30T00:57:56.280Z,83.90
2018-07-30T01:00:29.554Z,83.80
2018-07-30T01:03:02.695Z,84.40
2018-07-30T01:05:35.777Z,84.20
2018-07-30T01:08:08.819Z,84.60
2018-07-30T01:10:42.519Z,84.60
2018-07-30T01:15:47.369Z,85.10
2018-07-30T01:18:20.406Z,85.10
2018-07-30T01:20:53.623Z,85.00
2018-07-30T01:25:59.434Z,85.10
2018-07-30T01:28:33.387Z,85.40
2018-07-30T01:31:06.655Z,85.60
2018-07-30T01:33:39.807Z,85.50
2018-07-30T01:36:13.014Z,85.70
2018-07-30T01:38:46.027Z,85.90
2018-07-30T01:41:21.566Z,86.10
2018-07-30T01:43:54.811Z,86.10
2018-07-30T01:46:27.852Z,86.00
2018-07-30T01:49:01.807Z,85.80
2018-07-30T01:51:34.945Z,85.70
2018-07-30T01:54:08.283Z,85.90
2018-07-30T01:56:41.442Z,85.90
2018-07-30T01:59:14.979Z,86.00
2018-07-30T02:01:47.984Z,86.10
2018-07-30T02:04:21.201Z,86.00
2018-07-30T02:06:54.476Z,86.10
2018-07-30T02:09:27.496Z,85.90
2018-07-30T02:12:01.129Z,86.00
2018-07-30T02:14:34.144Z,85.90
2018-07-30T02:17:07.257Z,85.70
2018-07-30T02:19:40.305Z,86.70
2018-07-30T02:22:13.525Z,85.90
2018-07-30T02:24:47.841Z,85.90
2018-07-30T02:27:21.839Z,85.70
2018-07-30T02:29:54.978Z,85.70
2018-07-30T02:32:28.069Z,85.70
2018-07-30T02:35:01.317Z,85.80
2018-07-30T02:37:35.028Z,85.80
2018-07-30T02:40:08.581Z,85.90
2018-07-30T02:42:41.776Z,86.00
2018-07-30T02:45:15.112Z,85.90
2018-07-30T02:47:48.235Z,85.90
2018-07-30T02:50:21.432Z,85.90
2018-07-30T02:52:54.564Z,86.00
2018-07-30T02:55:28.347Z,86.10
2018-07-30T02:58:01.390Z,86.20
2018-07-30T03:00:35.170Z,86.20
2018-07-30T03:03:08.457Z,86.20
2018-07-30T03:05:41.586Z,86.30
2018-07-30T03:08:16.270Z,86.20
2018-07-30T03:10:49.218Z,86.20
2018-07-30T03:13:22.268Z,86.20
2018-07-30T03:15:57.794Z,86.10
2018-07-30T03:18:30.829Z,86.20
2018-07-30T03:21:04.223Z,86.10
2018-07-30T03:23:37.081Z,86.00
2018-07-30T03:26:09.943Z,86.00
2018-07-30T03:28:42.869Z,86.10
2018-07-30T03:31:15.786Z,86.00
2018-07-30T03:33:48.924Z,86.00
2018-07-30T03:36:21.859Z,85.90
2018-07-30T03:38:55.450Z,85.90
2018-07-30T03:41:28.244Z,86.00
2018-07-30T03:44:01.203Z,85.90
2018-07-30T03:46:34.119Z,86.00
2018-07-30T03:49:08.259Z,86.00
2018-07-30T03:51:41.652Z,86.00
2018-07-30T03:54:17.209Z,85.80
2018-07-30T03:56:50.487Z,85.80
2018-07-30T03:59:23.600Z,85.70
2018-07-30T04:01:56.668Z,85.60
2018-07-30T04:04:30.702Z,85.60
2018-07-30T04:07:03.841Z,85.50
2018-07-30T04:09:37.068Z,85.50
2018-07-30T04:12:10.390Z,85.60
2018-07-30T04:14:43.476Z,85.70
2018-07-30T04:17:16.721Z,85.90
2018-07-30T04:19:49.779Z,85.80
2018-07-30T04:22:23.444Z,85.80
2018-07-30T04:24:56.608Z,85.80
2018-07-30T04:27:29.711Z,85.80
2018-07-30T04:30:02.732Z,85.80
2018-07-30T04:32:35.967Z,85.70
2018-07-30T04:35:10.377Z,85.70
2018-07-30T04:37:43.453Z,85.60
2018-07-30T04:40:16.571Z,85.60
2018-07-30T04:42:49.687Z,85.60
2018-07-30T04:45:22.939Z,85.70
2018-07-30T04:47:56.071Z,85.60
2018-07-30T04:50:29.212Z,85.60
2018-07-30T04:53:03.630Z,85.60
2018-07-30T04:55:36.807Z,85.60
2018-07-30T04:58:10.052Z,85.40
2018-07-30T05:00:43.216Z,85.50
2018-07-30T05:05:49.312Z,85.60
2018-07-30T05:08:22.340Z,85.50
2018-07-30T05:10:56.334Z,86.30
2018-07-30T05:13:29.420Z,85.50
2018-07-30T05:16:02.496Z,85.50
2018-07-30T05:18:36.674Z,85.40
2018-07-30T05:21:09.935Z,85.40
2018-07-30T05:23:43.289Z,85.30
2018-07-30T05:26:16.717Z,85.20
2018-07-30T05:28:49.985Z,85.20
2018-07-30T05:31:23.996Z,85.20
2018-07-30T05:33:57.089Z,85.10
2018-07-30T05:36:30.572Z,85.00
2018-07-30T05:39:03.683Z,85.00
2018-07-30T05:41:36.797Z,85.00
2018-07-30T05:44:10.092Z,84.90
2018-07-30T05:46:43.239Z,84.70
2018-07-30T05:49:16.759Z,84.70
2018-07-30T05:51:49.826Z,84.70
2018-07-30T05:54:23.005Z,84.60
2018-07-30T05:56:56.110Z,84.50
2018-07-30T05:59:30.231Z,84.30
2018-07-30T06:02:04.089Z,84.30
2018-07-30T06:04:37.323Z,84.30
2018-07-30T06:07:10.560Z,84.20
2018-07-30T06:09:44.018Z,84.20
2018-07-30T06:12:17.201Z,84.10
2018-07-30T06:14:50.525Z,84.80
2018-07-30T06:17:24.824Z,84.10
2018-07-30T06:19:59.894Z,84.00
2018-07-30T06:22:32.904Z,83.90
2018-07-30T06:25:06.081Z,83.80
2018-07-30T06:27:39.739Z,83.80
2018-07-30T06:30:13.331Z,83.70
2018-07-30T06:32:46.876Z,83.70
2018-07-30T06:35:20.115Z,83.60
2018-07-30T06:37:53.202Z,83.60
2018-07-30T06:40:26.266Z,83.50
2018-07-30T06:42:59.551Z,83.50
2018-07-30T06:45:33.044Z,83.40
2018-07-30T06:48:06.248Z,83.40
2018-07-30T06:50:39.610Z,83.30
2018-07-30T06:53:12.796Z,84.00
2018-07-30T06:55:45.983Z,83.20
2018-07-30T06:58:19.499Z,83.20
2018-07-30T07:00:52.577Z,83.20
2018-07-30T07:03:26.018Z,83.00
2018-07-30T07:05:59.110Z,82.90
2018-07-30T07:08:32.240Z,82.80
2018-07-30T07:11:05.371Z,82.70
2018-07-30T07:13:38.467Z,82.60
2018-07-30T07:16:11.838Z,82.60
2018-07-30T07:18:45.061Z,82.40
2018-07-30T07:21:18.196Z,82.30
2018-07-30T07:23:51.282Z,82.30
2018-07-30T07:26:24.351Z,82.10
2018-07-30T07:31:29.588Z,82.00
2018-07-30T07:36:34.947Z,81.90
2018-07-30T07:39:10.213Z,81.90
2018-07-30T07:41:43.332Z,81.90
2018-07-30T07:44:16.341Z,81.90
2018-07-30T07:46:49.888Z,81.80
2018-07-30T07:49:22.937Z,81.80
2018-07-30T07:51:56.070Z,81.70
2018-07-30T07:54:29.292Z,81.80
2018-07-30T07:57:02.366Z,81.70
2018-07-30T07:59:35.923Z,81.60
2018-07-30T08:02:10.308Z,81.50
2018-07-30T08:04:43.420Z,81.50
2018-07-30T08:07:16.472Z,81.40
2018-07-30T08:09:49.959Z,81.40
2018-07-30T08:12:24.350Z,81.40
2018-07-30T08:14:57.386Z,81.30
2018-07-30T08:17:31.008Z,81.20
2018-07-30T08:20:04.066Z,81.20
2018-07-30T08:22:37.140Z,81.00
2018-07-30T08:25:14.055Z,81.00
2018-07-30T08:27:47.193Z,80.80
2018-07-30T08:30:21.057Z,80.70
2018-07-30T08:32:54.223Z,80.70
2018-07-30T08:35:27.435Z,80.50
2018-07-30T08:38:00.599Z,80.40
2018-07-30T08:40:33.702Z,80.40
2018-07-30T08:43:07.972Z,80.30
2018-07-30T08:45:42.137Z,80.00
2018-07-30T08:48:15.390Z,80.00
2018-07-30T08:50:48.581Z,80.00
2018-07-30T08:53:21.700Z,79.90
2018-07-30T08:55:55.940Z,79.80
2018-07-30T08:58:30.308Z,79.80
2018-07-30T09:01:03.943Z,79.60
2018-07-30T09:03:36.923Z,79.70
2018-07-30T09:06:10.317Z,79.50
2018-07-30T09:08:43.521Z,79.50
2018-07-30T09:11:16.539Z,79.50
2018-07-30T09:16:21.936Z,79.30
2018-07-30T09:18:55.097Z,80.10
2018-07-30T09:21:28.233Z,79.30
2018-07-30T09:24:01.332Z,79.30
2018-07-30T09:26:35.871Z,79.30
2018-07-30T09:29:08.967Z,79.20
2018-07-30T09:31:42.961Z,79.10
2018-07-30T09:34:16.054Z,78.90
2018-07-30T09:36:49.031Z,78.90
2018-07-30T09:39:22.660Z,78.80
2018-07-30T09:41:55.781Z,78.90
2018-07-30T09:44:29.599Z,78.80
2018-07-30T09:47:02.704Z,78.60
2018-07-30T09:49:35.793Z,78.70
2018-07-30T09:52:08.975Z,78.80
2018-07-30T09:54:42.187Z,78.70
2018-07-30T09:57:15.382Z,78.50
2018-07-30T09:59:49.439Z,78.30
2018-07-30T10:02:22.467Z,78.20
2018-07-30T10:04:55.619Z,74.00
2018-07-30T10:07:28.781Z,70.30
2018-07-30T10:10:03.035Z,67.30
2018-07-30T10:12:36.085Z,67.90
2018-07-30T10:15:09.567Z,68.00
2018-07-30T10:17:42.641Z,68.30
2018-07-30T10:20:15.786Z,69.30
2018-07-30T10:22:48.932Z,70.00
2018-07-30T10:25:22.193Z,70.00
2018-07-30T10:27:56.590Z,70.30
2018-07-30T10:30:29.728Z,70.70
2018-07-30T10:33:02.883Z,71.20
2018-07-30T10:35:35.945Z,71.80
2018-07-30T10:38:09.292Z,72.10
2018-07-30T10:40:44.057Z,72.10
2018-07-30T10:43:17.696Z,72.60
2018-07-30T10:45:50.818Z,72.80
2018-07-30T10:48:24.718Z,72.90
2018-07-30T10:51:00.289Z,73.00
2018-07-30T10:53:33.753Z,73.10
2018-07-30T10:56:06.892Z,73.10
2018-07-30T10:58:40.103Z,73.20
2018-07-30T11:01:13.167Z,73.40
2018-07-30T11:03:46.225Z,73.50
2018-07-30T11:06:19.883Z,73.60
2018-07-30T11:08:52.918Z,73.60
2018-07-30T11:11:27.422Z,73.70
2018-07-30T11:14:01.367Z,73.90
2018-07-30T11:16:34.437Z,73.90
2018-07-30T11:19:07.954Z,74.00
2018-07-30T11:21:41.472Z,74.00
2018-07-30T11:24:15.110Z,74.10
2018-07-30T11:26:48.162Z,74.10
2018-07-30T11:29:21.410Z,74.30
2018-07-30T11:31:54.522Z,74.70
2018-07-30T11:34:27.552Z,75.10
2018-07-30T11:37:00.886Z,75.50
2018-07-30T11:39:33.962Z,76.30
2018-07-30T11:42:08.255Z,76.70
2018-07-30T11:44:41.432Z,76.90
2018-07-30T11:47:15.606Z,76.90
2018-07-30T11:49:49.940Z,77.00
2018-07-30T11:52:23.140Z,77.00
2018-07-30T11:54:56.455Z,77.10
2018-07-30T11:57:29.630Z,77.10
2018-07-30T12:00:02.777Z,77.10
2018-07-30T12:02:35.880Z,77.10
2018-07-30T12:05:09.059Z,77.10
2018-07-30T12:07:43.439Z,77.10
2018-07-30T12:10:16.655Z,77.20
2018-07-30T12:12:49.714Z,77.30
2018-07-30T12:15:25.272Z,77.40
2018-07-30T12:17:59.232Z,77.50
2018-07-30T12:20:32.864Z,77.70
2018-07-30T12:23:06.037Z,77.80
2018-07-30T12:25:39.211Z,78.20
2018-07-30T12:28:13.973Z,78.30
2018-07-30T12:30:47.119Z,78.30
2018-07-30T12:33:21.114Z,78.20
2018-07-30T12:35:54.307Z,78.20
2018-07-30T12:38:27.715Z,77.80
2018-07-30T12:41:01.859Z,77.80
2018-07-30T12:43:35.044Z,77.80
2018-07-30T12:46:08.131Z,77.80
2018-07-30T12:48:41.298Z,77.80
2018-07-30T12:51:15.751Z,77.60
2018-07-30T12:53:48.790Z,77.60
2018-07-30T12:56:21.923Z,77.50
2018-07-30T12:58:54.940Z,77.40
2018-07-30T13:01:28.029Z,77.40
2018-07-30T13:04:01.856Z,77.40
2018-07-30T13:06:35.083Z,77.50
2018-07-30T13:09:09.574Z,77.60
2018-07-30T13:11:42.676Z,77.70
2018-07-30T13:14:15.805Z,77.70
2018-07-30T13:16:49.578Z,77.70
2018-07-30T13:19:22.633Z,77.80
2018-07-30T13:21:56.264Z,77.80
2018-07-30T13:24:29.397Z,77.80
2018-07-30T13:27:02.541Z,77.90
2018-07-30T13:29:35.591Z,78.10
2018-07-30T13:32:08.684Z,78.30
2018-07-30T13:34:42.065Z,78.20
2018-07-30T13:37:15.173Z,78.30
2018-07-30T13:39:48.150Z,78.50
2018-07-30T13:42:21.172Z,78.60
2018-07-30T13:44:54.641Z,78.60
2018-07-30T13:47:29.917Z,78.60
2018-07-30T13:50:03.735Z,78.80
2018-07-30T13:52:37.480Z,78.80
2018-07-30T13:55:11.207Z,78.90
2018-07-30T13:57:44.304Z,78.90
2018-07-30T14:00:17.853Z,78.90
2018-07-30T14:02:50.989Z,79.00
2018-07-30T14:05:24.807Z,79.30
2018-07-30T14:07:58.694Z,79.30
2018-07-30T14:10:31.820Z,79.70
2018-07-30T14:13:05.010Z,80.10
2018-07-30T14:15:38.192Z,80.40
2018-07-30T14:18:12.536Z,80.80
2018-07-30T14:20:46.737Z,81.00
2018-07-30T14:23:19.947Z,81.20
2018-07-30T14:25:53.092Z,81.50
2018-07-30T14:28:26.450Z,81.50
2018-07-30T14:33:32.068Z,81.50
2018-07-30T14:36:05.656Z,81.40
2018-07-30T14:38:38.808Z,81.20
2018-07-30T14:41:12.096Z,81.00
2018-07-30T14:43:45.422Z,81.10
2018-07-30T14:46:18.861Z,80.90
2018-07-30T14:48:52.593Z,81.50
2018-07-30T14:51:26.414Z,81.00
2018-07-30T14:53:59.761Z,81.20
2018-07-30T14:56:32.897Z,81.40
2018-07-30T14:59:06.015Z,81.20
2018-07-30T15:01:40.178Z,81.00
2018-07-30T15:04:13.281Z,81.20
2018-07-30T15:06:46.708Z,81.30
2018-07-30T15:09:20.200Z,80.50
2018-07-30T15:11:53.342Z,79.40
2018-07-30T15:14:26.563Z,78.70
2018-07-30T15:16:59.853Z,78.60
2018-07-30T15:22:05.188Z,78.20
2018-07-30T15:24:38.909Z,78.60
2018-07-30T15:27:12.160Z,79.10
2018-07-30T15:29:45.217Z,78.50
2018-07-30T15:32:18.482Z,78.90
2018-07-30T15:34:51.616Z,78.30
2018-07-30T15:37:25.364Z,78.40
2018-07-30T15:39:58.384Z,78.40
2018-07-30T15:42:32.577Z,79.20
2018-07-30T15:45:06.777Z,78.10
2018-07-30T15:47:39.977Z,77.90
2018-07-30T15:50:14.072Z,78.00
2018-07-30T15:52:47.231Z,78.90
2018-07-30T15:55:20.379Z,79.40
2018-07-30T15:57:54.757Z,79.30
2018-07-30T16:00:29.623Z,79.40
2018-07-30T16:03:03.307Z,79.60
2018-07-30T16:05:36.514Z,79.40
2018-07-30T16:08:09.694Z,79.60
2018-07-30T16:10:43.031Z,79.80
2018-07-30T16:13:16.136Z,79.50
2018-07-30T16:15:50.713Z,79.40
2018-07-30T16:18:23.803Z,79.50
2018-07-30T16:23:30.187Z,80.20
2018-07-30T16:26:03.670Z,80.10
2018-07-30T16:28:36.950Z,80.50
2018-07-30T16:31:10.832Z,80.90
2018-07-30T16:33:44.839Z,80.50
2018-07-30T16:36:18.892Z,80.50
2018-07-30T16:38:51.940Z,80.20
2018-07-30T16:41:25.118Z,80.10
2018-07-30T16:43:59.217Z,80.60
2018-07-30T16:49:04.278Z,80.70
2018-07-30T16:54:09.047Z,80.80
2018-07-30T16:56:43.273Z,80.30
2018-07-30T16:59:16.499Z,80.80
2018-07-30T17:01:49.885Z,80.70
2018-07-30T17:04:23.852Z,80.70
2018-07-30T17:06:57.045Z,81.30
2018-07-30T17:09:31.168Z,80.90
2018-07-30T17:12:04.268Z,77.80
2018-07-30T17:14:37.334Z,73.60
2018-07-30T17:17:10.655Z,69.50
2018-07-30T17:19:43.831Z,66.20
2018-07-30T17:22:16.964Z,63.50
2018-07-30T17:24:50.047Z,65.70
2018-07-30T17:27:23.256Z,68.30
2018-07-30T17:32:29.531Z,66.60
2018-07-30T17:35:02.657Z,63.70
2018-07-30T17:37:36.101Z,66.50
2018-07-30T17:40:10.735Z,68.90
2018-07-30T17:42:43.923Z,70.00
2018-07-30T17:45:17.414Z,66.10
2018-07-30T17:47:51.980Z,65.70
2018-07-30T17:50:25.125Z,68.50
2018-07-30T17:55:35.269Z,68.00
2018-07-30T17:58:08.194Z,64.60
2018-07-30T18:00:41.751Z,67.50
2018-07-30T18:03:14.940Z,69.60
2018-07-30T18:05:47.874Z,68.60
2018-07-30T18:08:21.886Z,65.20
2018-07-30T18:10:54.849Z,67.10
2018-07-30T18:13:29.033Z,69.20
2018-07-30T18:16:01.913Z,70.80
2018-07-30T18:18:35.264Z,66.40
2018-07-30T18:21:08.244Z,69.70
2018-07-30T18:23:41.615Z,70.70
2018-07-30T18:26:16.808Z,70.80
2018-07-30T18:28:50.683Z,68.70
2018-07-30T18:31:25.409Z,70.90
2018-07-30T18:33:58.794Z,72.40
2018-07-30T18:36:31.713Z,70.20
2018-07-30T18:39:05.126Z,69.10
2018-07-30T18:41:38.178Z,70.70
2018-07-30T18:44:11.742Z,72.30
2018-07-30T18:46:44.927Z,69.70
2018-07-30T18:49:18.598Z,70.30
2018-07-30T18:51:51.740Z,72.00
2018-07-30T18:54:24.781Z,73.00
2018-07-30T18:59:29.730Z,71.50
2018-07-30T19:04:34.565Z,72.40
2018-07-30T19:07:08.636Z,69.00
2018-07-30T19:09:43.832Z,71.40
2018-07-30T19:12:16.915Z,72.60
2018-07-30T19:17:23.594Z,72.20
2018-07-30T19:19:56.625Z,73.80
2018-07-30T19:22:29.681Z,74.80
2018-07-30T19:25:03.556Z,73.10
2018-07-30T19:27:36.681Z,73.90
2018-07-30T19:30:10.317Z,74.80
2018-07-30T19:32:43.254Z,75.80
2018-07-30T19:35:16.266Z,73.30
2018-07-30T19:37:49.212Z,74.50
2018-07-30T19:40:23.742Z,75.70
2018-07-30T19:42:56.901Z,74.60
2018-07-30T19:45:30.201Z,75.70
2018-07-30T19:48:03.159Z,76.60
2018-07-30T19:50:36.196Z,74.60
2018-07-30T19:53:09.214Z,74.20
2018-07-30T19:55:42.241Z,76.00
2018-07-30T20:00:47.353Z,75.10
2018-07-30T20:03:20.468Z,76.60
2018-07-30T20:05:53.557Z,77.50
2018-07-30T20:08:26.580Z,74.10
2018-07-30T20:11:02.000Z,74.90
2018-07-30T20:13:34.970Z,75.90
2018-07-30T20:16:08.890Z,77.30
2018-07-30T20:18:41.814Z,77.80
2018-07-30T20:21:15.000Z,78.70
2018-07-30T20:23:49.239Z,77.40
2018-07-30T20:26:22.240Z,78.60
2018-07-30T20:28:55.876Z,79.10
2018-07-30T20:31:30.018Z,77.20
2018-07-30T20:34:03.062Z,78.90
2018-07-30T20:36:36.095Z,79.50
2018-07-30T20:39:11.136Z,79.40
2018-07-30T20:41:44.391Z,78.50
2018-07-30T20:44:17.453Z,79.00
2018-07-30T20:46:50.574Z,80.20
2018-07-30T20:49:23.524Z,79.50
2018-07-30T20:51:56.544Z,79.70
2018-07-30T20:54:30.935Z,80.40
2018-07-30T20:57:04.294Z,78.60
2018-07-30T20:59:37.301Z,79.80
2018-07-30T21:02:10.865Z,80.60
2018-07-30T21:04:43.908Z,78.70
2018-07-30T21:07:17.039Z,79.60
2018-07-30T21:09:50.794Z,80.60
2018-07-30T21:12:24.088Z,78.80
2018-07-30T21:14:57.139Z,79.90
2018-07-30T21:17:30.071Z,80.70
2018-07-30T21:20:03.011Z,78.70
2018-07-30T21:22:35.994Z,79.80
2018-07-30T21:25:09.224Z,80.60
2018-07-30T21:27:42.176Z,79.30
2018-07-30T21:30:14.871Z,79.60
2018-07-30T21:32:47.984Z,80.70
2018-07-30T21:35:20.964Z,80.80
2018-07-30T21:37:54.210Z,79.80
2018-07-30T21:40:27.174Z,80.70
2018-07-30T21:43:00.533Z,81.30
2018-07-30T21:45:34.325Z,78.80
2018-07-30T21:48:07.322Z,80.10
2018-07-30T21:50:40.890Z,81.00
2018-07-30T21:53:13.846Z,79.20
2018-07-30T21:55:47.691Z,80.00
2018-07-30T21:58:20.660Z,81.10
2018-07-30T22:00:57.609Z,81.50
2018-07-30T22:03:30.687Z,79.80
2018-07-30T22:06:03.862Z,80.80
2018-07-30T22:08:37.392Z,81.60
2018-07-30T22:11:10.450Z,79.90
2018-07-30T22:13:43.323Z,80.90
2018-07-30T22:16:16.341Z,81.60
2018-07-30T22:18:49.392Z,79.80
2018-07-30T22:21:23.334Z,81.00
2018-07-30T22:23:57.046Z,81.80
2018-07-30T22:26:31.103Z,80.90
2018-07-30T22:29:05.051Z,80.30
2018-07-30T22:31:38.066Z,81.40
2018-07-30T22:34:11.051Z,81.60
2018-07-30T22:36:43.965Z,80.50
2018-07-30T22:39:17.487Z,81.40
2018-07-30T22:41:51.373Z,81.90
2018-07-30T22:44:24.379Z,80.10
2018-07-30T22:46:57.470Z,81.00
2018-07-30T22:49:30.606Z,81.90
2018-07-30T22:52:03.867Z,80.10
2018-07-30T22:54:39.588Z,80.90
2018-07-30T22:57:12.630Z,81.80
2018-07-30T22:59:45.761Z,82.00
2018-07-30T23:02:18.717Z,80.50
2018-07-30T23:04:52.730Z,81.40
2018-07-30T23:07:25.654Z,82.10
2018-07-30T23:10:01.179Z,80.20
2018-07-30T23:12:34.141Z,81.20
2018-07-30T23:15:07.153Z,82.10
2018-07-30T23:17:40.160Z,82.10
2018-07-30T23:20:13.248Z,78.70
2018-07-30T23:25:18.359Z,81.30
2018-07-30T23:27:51.337Z,82.00
2018-07-30T23:30:24.380Z,82.60
2018-07-30T23:32:58.538Z,81.10
2018-07-30T23:35:31.979Z,81.40
2018-07-30T23:38:05.044Z,82.40
2018-07-30T23:40:38.066Z,82.80
2018-07-30T23:43:10.974Z,78.20
2018-07-30T23:45:43.965Z,80.10
2018-07-30T23:48:17.012Z,81.20
2018-07-30T23:50:50.085Z,80.20
2018-07-30T23:53:23.738Z,80.00
2018-07-30T23:55:56.997Z,81.30
2018-07-30T23:58:30.180Z,81.40
